DAL195 KDFW-KLAX
Flight info
| Callsign | DAL195 |
|---|---|
| Flight time | N/A |
| Altitude | 38000 |
| Route | KATZZ2 BRHMA CNX ONM SJN DRK J231 HIPPI GABBL HLYWD1 |
| Aircraft | L101/H-SDFGHIRWXY/S |
Departure
| Time | 2026-05-04 21:11 |
|---|---|
| Airport | Dallas Fort Worth International Airport (KDFW) |
Arrival
| Time | N/A |
|---|---|
| Airport | Los Angeles International Airport (KLAX) |
| Time | Latitude | Longitude | Altitude | Speed | Heading |
|---|---|---|---|---|---|
| 2026-05-04 21:03 | 32.88993 | -97.03445 | 589 ft | 0 kts | 11° |
| 2026-05-04 21:06 | 32.89014 | -97.03440 | 589 ft | 6 kts | 11° |
| 2026-05-04 21:06 | 32.89069 | -97.03427 | 589 ft | 11 kts | 11° |
| 2026-05-04 21:06 | 32.89150 | -97.03385 | 589 ft | 15 kts | 28° |
| 2026-05-04 21:07 | 32.89256 | -97.03324 | 589 ft | 19 kts | 12° |
| 2026-05-04 21:07 | 32.89397 | -97.03316 | 590 ft | 22 kts | 359° |
| 2026-05-04 21:07 | 32.89561 | -97.03316 | 591 ft | 25 kts | 0° |
| 2026-05-04 21:07 | 32.89749 | -97.03314 | 591 ft | 29 kts | 1° |
| 2026-05-04 21:08 | 32.89960 | -97.03310 | 590 ft | 30 kts | 360° |
| 2026-05-04 21:08 | 32.90160 | -97.03312 | 590 ft | 28 kts | 359° |
| 2026-05-04 21:08 | 32.90363 | -97.03314 | 590 ft | 30 kts | 359° |
| 2026-05-04 21:08 | 32.90581 | -97.03311 | 590 ft | 32 kts | 359° |
| 2026-05-04 21:09 | 32.90783 | -97.03308 | 590 ft | 27 kts | 2° |
| 2026-05-04 21:09 | 32.90982 | -97.03302 | 587 ft | 30 kts | 13° |
| 2026-05-04 21:09 | 32.91197 | -97.03276 | 586 ft | 32 kts | 358° |
| 2026-05-04 21:09 | 32.91424 | -97.03274 | 583 ft | 30 kts | 1° |
| 2026-05-04 21:10 | 32.91565 | -97.03247 | 580 ft | 17 kts | 58° |
| 2026-05-04 21:10 | 32.91562 | -97.03109 | 580 ft | 18 kts | 92° |
| 2026-05-04 21:10 | 32.91518 | -97.02994 | 582 ft | 15 kts | 163° |
| 2026-05-04 21:10 | 32.91409 | -97.02990 | 584 ft | 24 kts | 180° |
| 2026-05-04 21:11 | 32.91002 | -97.02992 | 583 ft | 99 kts | 181° |
| 2026-05-04 21:11 | 32.90068 | -97.03005 | 807 ft | 155 kts | 179° |
| 2026-05-04 21:11 | 32.88990 | -97.02914 | 1744 ft | 150 kts | 173° |
| 2026-05-04 21:11 | 32.87962 | -97.02816 | 2459 ft | 151 kts | 178° |
| 2026-05-04 21:12 | 32.86922 | -97.02830 | 3188 ft | 148 kts | 184° |
| 2026-05-04 21:12 | 32.85839 | -97.02927 | 3770 ft | 170 kts | 187° |
| 2026-05-04 21:12 | 32.84558 | -97.03098 | 3953 ft | 199 kts | 188° |
| 2026-05-04 21:12 | 32.83068 | -97.03327 | 4083 ft | 231 kts | 189° |
| 2026-05-04 21:13 | 32.81374 | -97.03610 | 4332 ft | 259 kts | 189° |
| 2026-05-04 21:13 | 32.79552 | -97.03928 | 5017 ft | 264 kts | 189° |
| 2026-05-04 21:13 | 32.77792 | -97.04240 | 6180 ft | 249 kts | 190° |
| 2026-05-04 21:13 | 32.76049 | -97.04552 | 6829 ft | 260 kts | 191° |
| 2026-05-04 21:14 | 32.74276 | -97.05082 | 7243 ft | 270 kts | 206° |
| 2026-05-04 21:14 | 32.72833 | -97.06443 | 8142 ft | 265 kts | 230° |
| 2026-05-04 21:14 | 32.71796 | -97.08280 | 8793 ft | 270 kts | 239° |
| 2026-05-04 21:14 | 32.70889 | -97.10257 | 9449 ft | 274 kts | 243° |
| 2026-05-04 21:15 | 32.70199 | -97.12376 | 10091 ft | 277 kts | 256° |
| 2026-05-04 21:15 | 32.69967 | -97.14692 | 10465 ft | 293 kts | 266° |
| 2026-05-04 21:15 | 32.69931 | -97.17201 | 10600 ft | 313 kts | 269° |
| 2026-05-04 21:15 | 32.69907 | -97.19865 | 10719 ft | 331 kts | 269° |
| 2026-05-04 21:16 | 32.69903 | -97.22669 | 10822 ft | 347 kts | 271° |
| 2026-05-04 21:16 | 32.70089 | -97.25555 | 10969 ft | 361 kts | 277° |
| 2026-05-04 21:16 | 32.70561 | -97.28483 | 11578 ft | 360 kts | 281° |
| 2026-05-04 21:16 | 32.71078 | -97.31395 | 12170 ft | 359 kts | 281° |
| 2026-05-04 21:17 | 32.71534 | -97.34331 | 12692 ft | 362 kts | 279° |
| 2026-05-04 21:17 | 32.71947 | -97.37293 | 13183 ft | 367 kts | 279° |
| 2026-05-04 21:17 | 32.72346 | -97.40268 | 13907 ft | 364 kts | 279° |
| 2026-05-04 21:17 | 32.72775 | -97.43245 | 14417 ft | 367 kts | 280° |
| 2026-05-04 21:18 | 32.73253 | -97.46241 | 14937 ft | 370 kts | 281° |
| 2026-05-04 21:18 | 32.73775 | -97.49247 | 15536 ft | 372 kts | 282° |
| 2026-05-04 21:18 | 32.74314 | -97.52261 | 16116 ft | 373 kts | 282° |
| 2026-05-04 21:18 | 32.74850 | -97.55295 | 16691 ft | 375 kts | 282° |
| 2026-05-04 21:19 | 32.75374 | -97.58342 | 17265 ft | 378 kts | 282° |
| 2026-05-04 21:19 | 32.75886 | -97.61413 | 17845 ft | 380 kts | 282° |
| 2026-05-04 21:19 | 32.76395 | -97.64511 | 18398 ft | 383 kts | 282° |
| 2026-05-04 21:19 | 32.76896 | -97.67584 | 19001 ft | 384 kts | 282° |
| 2026-05-04 21:20 | 32.77407 | -97.70712 | 19541 ft | 387 kts | 282° |
| 2026-05-04 21:20 | 32.77926 | -97.73852 | 20174 ft | 388 kts | 282° |
| 2026-05-04 21:20 | 32.78522 | -97.76983 | 20741 ft | 390 kts | 285° |
| 2026-05-04 21:20 | 32.79244 | -97.80097 | 21332 ft | 391 kts | 287° |
| 2026-05-04 21:21 | 32.80044 | -97.83193 | 21889 ft | 393 kts | 288° |
| 2026-05-04 21:21 | 32.80871 | -97.86315 | 22438 ft | 396 kts | 288° |
| 2026-05-04 21:21 | 32.81677 | -97.89455 | 22994 ft | 398 kts | 287° |
| 2026-05-04 21:21 | 32.82441 | -97.92618 | 23559 ft | 400 kts | 286° |
| 2026-05-04 21:22 | 32.83178 | -97.95821 | 24147 ft | 402 kts | 285° |
| 2026-05-04 21:22 | 32.83900 | -97.99046 | 24742 ft | 403 kts | 285° |
| 2026-05-04 21:22 | 32.84626 | -98.02278 | 25228 ft | 408 kts | 285° |
| 2026-05-04 21:22 | 32.85380 | -98.05582 | 25355 ft | 419 kts | 286° |
| 2026-05-04 21:23 | 32.86164 | -98.08964 | 25490 ft | 429 kts | 286° |
| 2026-05-04 21:23 | 32.86962 | -98.12368 | 25842 ft | 433 kts | 286° |
| 2026-05-04 21:23 | 32.87767 | -98.15797 | 26523 ft | 429 kts | 286° |
| 2026-05-04 21:23 | 32.88561 | -98.19191 | 27422 ft | 422 kts | 286° |
| 2026-05-04 21:24 | 32.89340 | -98.22546 | 28107 ft | 418 kts | 286° |
| 2026-05-04 21:24 | 32.90104 | -98.25853 | 28937 ft | 412 kts | 286° |
| 2026-05-04 21:24 | 32.90859 | -98.29126 | 29752 ft | 406 kts | 286° |
| 2026-05-04 21:24 | 32.91603 | -98.32346 | 30483 ft | 401 kts | 286° |
| 2026-05-04 21:25 | 32.92337 | -98.35520 | 31321 ft | 394 kts | 287° |
| 2026-05-04 21:25 | 32.93064 | -98.38654 | 32082 ft | 388 kts | 287° |
| 2026-05-04 21:25 | 32.93775 | -98.41698 | 32802 ft | 383 kts | 287° |
| 2026-05-04 21:25 | 32.94488 | -98.44731 | 33501 ft | 378 kts | 287° |
| 2026-05-04 21:26 | 32.95188 | -98.47725 | 34211 ft | 372 kts | 287° |
| 2026-05-04 21:26 | 32.95868 | -98.50688 | 34777 ft | 370 kts | 286° |
| 2026-05-04 21:26 | 32.96528 | -98.53656 | 35295 ft | 369 kts | 286° |
| 2026-05-04 21:26 | 32.97184 | -98.56613 | 35816 ft | 367 kts | 286° |
| 2026-05-04 21:27 | 32.97842 | -98.59544 | 36318 ft | 366 kts | 286° |
| 2026-05-04 21:27 | 32.98505 | -98.62479 | 36757 ft | 367 kts | 287° |
| 2026-05-04 21:27 | 32.99171 | -98.65403 | 37251 ft | 365 kts | 286° |
| 2026-05-04 21:27 | 32.99831 | -98.68295 | 37578 ft | 369 kts | 286° |
| 2026-05-04 21:28 | 33.00505 | -98.71250 | 37726 ft | 370 kts | 286° |
| 2026-05-04 21:28 | 33.01175 | -98.74197 | 37756 ft | 367 kts | 286° |
| 2026-05-04 21:28 | 33.02497 | -98.80026 | 37779 ft | 362 kts | 286° |
| 2026-05-04 21:29 | 33.03806 | -98.85805 | 37792 ft | 360 kts | 286° |
| 2026-05-04 21:29 | 33.05111 | -98.91585 | 37795 ft | 360 kts | 286° |
| 2026-05-04 21:30 | 33.06403 | -98.97326 | 37792 ft | 360 kts | 286° |
| 2026-05-04 21:30 | 33.07698 | -99.03092 | 37796 ft | 360 kts | 286° |
| 2026-05-04 21:31 | 33.09642 | -99.11753 | 37796 ft | 361 kts | 286° |
| 2026-05-04 21:32 | 33.10934 | -99.17541 | 37793 ft | 361 kts | 286° |
| 2026-05-04 21:32 | 33.12226 | -99.23325 | 37795 ft | 360 kts | 285° |
| 2026-05-04 21:33 | 33.13515 | -99.29102 | 37801 ft | 360 kts | 285° |
| 2026-05-04 21:33 | 33.14787 | -99.34833 | 37807 ft | 360 kts | 285° |
| 2026-05-04 21:34 | 33.16066 | -99.40610 | 37807 ft | 360 kts | 285° |
| 2026-05-04 21:34 | 33.17340 | -99.46391 | 37805 ft | 359 kts | 285° |
| 2026-05-04 21:35 | 33.18614 | -99.52157 | 37803 ft | 359 kts | 285° |
| 2026-05-04 21:35 | 33.19878 | -99.57893 | 37795 ft | 359 kts | 285° |
| 2026-05-04 21:36 | 33.21172 | -99.63654 | 37796 ft | 358 kts | 285° |
| 2026-05-04 21:36 | 33.22422 | -99.69420 | 37795 ft | 358 kts | 285° |
| 2026-05-04 21:37 | 33.23707 | -99.75176 | 37794 ft | 358 kts | 285° |
| 2026-05-04 21:37 | 33.25006 | -99.80912 | 37795 ft | 357 kts | 285° |
| 2026-05-04 21:38 | 33.26300 | -99.86657 | 37793 ft | 357 kts | 285° |
| 2026-05-04 21:38 | 33.27590 | -99.92350 | 37794 ft | 357 kts | 285° |
| 2026-05-04 21:39 | 33.28884 | -99.98089 | 37798 ft | 357 kts | 285° |
| 2026-05-04 21:39 | 33.30170 | -100.03818 | 37794 ft | 356 kts | 285° |
| 2026-05-04 21:40 | 33.31457 | -100.09548 | 37792 ft | 357 kts | 285° |
| 2026-05-04 21:40 | 33.32741 | -100.15295 | 37797 ft | 358 kts | 285° |
| 2026-05-04 21:41 | 33.34023 | -100.21043 | 37793 ft | 358 kts | 285° |
| 2026-05-04 21:41 | 33.35302 | -100.26767 | 37795 ft | 357 kts | 285° |
| 2026-05-04 21:42 | 33.36364 | -100.31546 | 37803 ft | 357 kts | 285° |
| 2026-05-04 21:42 | 33.37638 | -100.37293 | 37805 ft | 357 kts | 285° |
| 2026-05-04 21:43 | 33.38920 | -100.43049 | 37803 ft | 357 kts | 285° |
| 2026-05-04 21:43 | 33.40179 | -100.48809 | 37802 ft | 358 kts | 284° |
| 2026-05-04 21:44 | 33.41448 | -100.54569 | 37809 ft | 358 kts | 284° |
| 2026-05-04 21:44 | 33.42715 | -100.60333 | 37819 ft | 358 kts | 285° |
| 2026-05-04 21:45 | 33.43983 | -100.66109 | 37813 ft | 358 kts | 285° |
| 2026-05-04 21:45 | 33.45237 | -100.71848 | 37814 ft | 359 kts | 285° |
| 2026-05-04 21:46 | 33.46503 | -100.77649 | 37817 ft | 359 kts | 284° |
| 2026-05-04 21:46 | 33.47763 | -100.83452 | 37809 ft | 359 kts | 284° |
| 2026-05-04 21:47 | 33.49022 | -100.89243 | 37813 ft | 359 kts | 284° |
| 2026-05-04 21:47 | 33.50273 | -100.95009 | 37820 ft | 359 kts | 284° |
| 2026-05-04 21:48 | 33.51530 | -101.00808 | 37809 ft | 359 kts | 284° |
| 2026-05-04 21:48 | 33.52742 | -101.06614 | 37819 ft | 360 kts | 283° |
| 2026-05-04 21:49 | 33.53871 | -101.12467 | 37823 ft | 360 kts | 283° |
| 2026-05-04 21:49 | 33.55027 | -101.18313 | 37821 ft | 360 kts | 283° |
| 2026-05-04 21:50 | 33.56196 | -101.24118 | 37827 ft | 360 kts | 283° |
| 2026-05-04 21:50 | 33.57373 | -101.29970 | 37824 ft | 360 kts | 283° |
| 2026-05-04 21:51 | 33.58548 | -101.35816 | 37821 ft | 360 kts | 283° |
| 2026-05-04 21:51 | 33.59719 | -101.41656 | 37829 ft | 360 kts | 283° |
| 2026-05-04 21:52 | 33.60891 | -101.47494 | 37829 ft | 360 kts | 283° |
| 2026-05-04 21:52 | 33.62056 | -101.53335 | 37833 ft | 360 kts | 283° |
| 2026-05-04 21:53 | 33.63210 | -101.59131 | 37832 ft | 359 kts | 283° |
| 2026-05-04 21:53 | 33.64369 | -101.64965 | 37829 ft | 359 kts | 283° |
| 2026-05-04 21:54 | 33.65525 | -101.70791 | 37833 ft | 359 kts | 283° |
| 2026-05-04 21:54 | 33.66679 | -101.76632 | 37833 ft | 359 kts | 283° |
| 2026-05-04 21:55 | 33.67829 | -101.82468 | 37830 ft | 359 kts | 283° |
| 2026-05-04 21:55 | 33.68978 | -101.88310 | 37830 ft | 359 kts | 283° |
| 2026-05-04 21:56 | 33.70111 | -101.94106 | 37833 ft | 358 kts | 283° |
| 2026-05-04 21:56 | 33.71250 | -101.99937 | 37833 ft | 358 kts | 283° |
| 2026-05-04 21:57 | 33.72385 | -102.05765 | 37837 ft | 358 kts | 283° |
| 2026-05-04 21:57 | 33.73513 | -102.11559 | 37840 ft | 358 kts | 283° |
| 2026-05-04 21:58 | 33.74644 | -102.17386 | 37843 ft | 358 kts | 283° |
| 2026-05-04 21:58 | 33.75775 | -102.23226 | 37851 ft | 359 kts | 283° |
| 2026-05-04 21:59 | 33.76903 | -102.29081 | 37850 ft | 359 kts | 283° |
| 2026-05-04 21:59 | 33.78019 | -102.34894 | 37859 ft | 359 kts | 283° |
| 2026-05-04 22:00 | 33.79144 | -102.40755 | 37861 ft | 359 kts | 283° |
| 2026-05-04 22:00 | 33.80263 | -102.46607 | 37868 ft | 359 kts | 283° |
| 2026-05-04 22:01 | 33.81384 | -102.52467 | 37864 ft | 359 kts | 283° |
| 2026-05-04 22:01 | 33.82499 | -102.58327 | 37862 ft | 360 kts | 283° |
| 2026-05-04 22:02 | 33.83619 | -102.64204 | 37880 ft | 360 kts | 282° |
| 2026-05-04 22:02 | 33.84723 | -102.70053 | 37868 ft | 361 kts | 282° |
| 2026-05-04 22:03 | 33.85835 | -102.75949 | 37864 ft | 361 kts | 282° |
| 2026-05-04 22:03 | 33.86948 | -102.81837 | 37866 ft | 361 kts | 282° |
| 2026-05-04 22:04 | 33.88052 | -102.87731 | 37867 ft | 361 kts | 282° |
| 2026-05-04 22:04 | 33.89158 | -102.93643 | 37868 ft | 361 kts | 282° |
| 2026-05-04 22:05 | 33.90254 | -102.99508 | 37861 ft | 361 kts | 282° |
| 2026-05-04 22:05 | 33.91350 | -103.05407 | 37870 ft | 361 kts | 282° |
| 2026-05-04 22:06 | 33.92445 | -103.11323 | 37866 ft | 362 kts | 282° |
| 2026-05-04 22:06 | 33.93541 | -103.17242 | 37871 ft | 362 kts | 282° |
| 2026-05-04 22:07 | 33.94637 | -103.23166 | 37867 ft | 362 kts | 281° |
| 2026-05-04 22:07 | 33.95718 | -103.29051 | 37866 ft | 362 kts | 282° |
| 2026-05-04 22:08 | 33.96803 | -103.34977 | 37860 ft | 362 kts | 282° |
| 2026-05-04 22:08 | 33.97889 | -103.40897 | 37861 ft | 361 kts | 281° |
| 2026-05-04 22:09 | 33.98969 | -103.46813 | 37859 ft | 361 kts | 281° |
| 2026-05-04 22:09 | 34.00045 | -103.52730 | 37860 ft | 360 kts | 281° |
| 2026-05-04 22:10 | 34.01112 | -103.58625 | 37861 ft | 360 kts | 281° |
| 2026-05-04 22:10 | 34.02177 | -103.64513 | 37857 ft | 359 kts | 281° |
| 2026-05-04 22:11 | 34.03239 | -103.70400 | 37860 ft | 359 kts | 281° |
| 2026-05-04 22:11 | 34.04293 | -103.76261 | 37857 ft | 360 kts | 281° |
| 2026-05-04 22:12 | 34.05356 | -103.82165 | 37862 ft | 360 kts | 281° |
| 2026-05-04 22:12 | 34.06410 | -103.88083 | 37865 ft | 360 kts | 281° |
| 2026-05-04 22:13 | 34.07464 | -103.93994 | 37851 ft | 360 kts | 281° |
| 2026-05-04 22:13 | 34.08510 | -103.99872 | 37854 ft | 360 kts | 281° |
| 2026-05-04 22:14 | 34.09557 | -104.05777 | 37851 ft | 360 kts | 281° |
| 2026-05-04 22:14 | 34.10601 | -104.11687 | 37860 ft | 360 kts | 281° |
| 2026-05-04 22:15 | 34.11646 | -104.17608 | 37859 ft | 361 kts | 281° |
| 2026-05-04 22:15 | 34.12687 | -104.23536 | 37861 ft | 360 kts | 281° |
| 2026-05-04 22:16 | 34.13713 | -104.29414 | 37866 ft | 360 kts | 280° |
| 2026-05-04 22:16 | 34.14742 | -104.35333 | 37860 ft | 360 kts | 281° |
| 2026-05-04 22:17 | 34.15778 | -104.41258 | 37855 ft | 360 kts | 281° |
| 2026-05-04 22:17 | 34.16807 | -104.47187 | 37857 ft | 361 kts | 281° |
| 2026-05-04 22:18 | 34.17836 | -104.53111 | 37879 ft | 360 kts | 280° |
| 2026-05-04 22:18 | 34.18851 | -104.59000 | 37902 ft | 360 kts | 280° |
| 2026-05-04 22:19 | 34.19868 | -104.64928 | 37904 ft | 360 kts | 280° |
| 2026-05-04 22:19 | 34.20888 | -104.70849 | 37933 ft | 360 kts | 280° |
| 2026-05-04 22:20 | 34.21902 | -104.76779 | 37940 ft | 360 kts | 280° |
| 2026-05-04 22:20 | 34.22911 | -104.82713 | 37940 ft | 361 kts | 279° |
| 2026-05-04 22:21 | 34.23923 | -104.88656 | 37946 ft | 361 kts | 279° |
| 2026-05-04 22:21 | 34.24931 | -104.94590 | 37959 ft | 361 kts | 279° |
| 2026-05-04 22:22 | 34.25923 | -105.00495 | 37957 ft | 360 kts | 279° |
| 2026-05-04 22:22 | 34.26925 | -105.06450 | 37957 ft | 361 kts | 279° |
| 2026-05-04 22:23 | 34.27925 | -105.12400 | 37960 ft | 361 kts | 279° |
| 2026-05-04 22:23 | 34.28917 | -105.18327 | 37977 ft | 361 kts | 279° |
| 2026-05-04 22:24 | 34.29907 | -105.24282 | 37977 ft | 361 kts | 279° |
| 2026-05-04 22:24 | 34.30894 | -105.30205 | 37970 ft | 361 kts | 279° |
| 2026-05-04 22:25 | 34.31885 | -105.36172 | 37982 ft | 362 kts | 279° |
| 2026-05-04 22:25 | 34.32873 | -105.42150 | 37984 ft | 362 kts | 278° |
| 2026-05-04 22:26 | 34.33861 | -105.48138 | 37987 ft | 362 kts | 279° |
| 2026-05-04 22:26 | 34.34840 | -105.54119 | 37992 ft | 363 kts | 278° |
| 2026-05-04 22:27 | 34.35817 | -105.60082 | 38006 ft | 363 kts | 278° |
| 2026-05-04 22:27 | 34.36690 | -105.66099 | 37997 ft | 362 kts | 272° |
| 2026-05-04 22:28 | 34.36612 | -105.72174 | 38014 ft | 362 kts | 268° |
| 2026-05-04 22:28 | 34.36466 | -105.78261 | 38016 ft | 362 kts | 269° |
| 2026-05-04 22:29 | 34.36389 | -105.84360 | 38019 ft | 362 kts | 269° |
| 2026-05-04 22:29 | 34.36267 | -105.90413 | 38015 ft | 362 kts | 269° |
| 2026-05-04 22:30 | 34.36140 | -105.96507 | 38016 ft | 362 kts | 269° |
| 2026-05-04 22:30 | 34.36008 | -106.02594 | 38011 ft | 362 kts | 268° |
| 2026-05-04 22:31 | 34.35871 | -106.08681 | 37991 ft | 362 kts | 268° |
| 2026-05-04 22:31 | 34.35733 | -106.14768 | 37989 ft | 362 kts | 268° |
| 2026-05-04 22:32 | 34.35615 | -106.19832 | 37986 ft | 362 kts | 268° |
| 2026-05-04 22:32 | 34.35473 | -106.25923 | 37977 ft | 362 kts | 268° |
| 2026-05-04 22:33 | 34.35324 | -106.32008 | 37982 ft | 362 kts | 268° |
| 2026-05-04 22:33 | 34.35172 | -106.38103 | 37963 ft | 362 kts | 268° |
| 2026-05-04 22:34 | 34.35022 | -106.44159 | 37979 ft | 362 kts | 268° |
| 2026-05-04 22:34 | 34.34865 | -106.50250 | 37979 ft | 362 kts | 268° |
| 2026-05-04 22:35 | 34.34705 | -106.56343 | 37958 ft | 362 kts | 268° |
| 2026-05-04 22:35 | 34.34542 | -106.62441 | 37967 ft | 362 kts | 268° |
| 2026-05-04 22:36 | 34.34377 | -106.68524 | 37966 ft | 361 kts | 268° |
| 2026-05-04 22:36 | 34.34210 | -106.74567 | 37953 ft | 361 kts | 268° |
| 2026-05-04 22:37 | 34.34016 | -106.80641 | 37957 ft | 361 kts | 267° |
| 2026-05-04 22:37 | 34.34111 | -106.86714 | 37957 ft | 361 kts | 272° |
| 2026-05-04 22:38 | 34.34443 | -106.92785 | 37954 ft | 362 kts | 272° |
| 2026-05-04 22:38 | 34.34709 | -106.98879 | 37951 ft | 362 kts | 271° |
| 2026-05-04 22:39 | 34.34975 | -107.04912 | 37960 ft | 361 kts | 271° |
| 2026-05-04 22:39 | 34.35249 | -107.10976 | 37955 ft | 361 kts | 271° |
| 2026-05-04 22:40 | 34.35518 | -107.17048 | 37949 ft | 361 kts | 271° |
| 2026-05-04 22:40 | 34.35781 | -107.23109 | 37964 ft | 361 kts | 271° |
| 2026-05-04 22:41 | 34.36042 | -107.29175 | 37970 ft | 361 kts | 271° |
| 2026-05-04 22:41 | 34.36300 | -107.35243 | 37960 ft | 361 kts | 271° |
| 2026-05-04 22:42 | 34.36560 | -107.41281 | 37969 ft | 360 kts | 271° |
| 2026-05-04 22:42 | 34.36815 | -107.47339 | 37978 ft | 360 kts | 271° |
| 2026-05-04 22:43 | 34.37063 | -107.53406 | 37975 ft | 360 kts | 271° |
| 2026-05-04 22:43 | 34.37309 | -107.59461 | 37962 ft | 360 kts | 271° |
| 2026-05-04 22:44 | 34.37551 | -107.65489 | 37981 ft | 361 kts | 271° |
| 2026-05-04 22:44 | 34.37793 | -107.71554 | 37985 ft | 360 kts | 271° |
| 2026-05-04 22:45 | 34.38031 | -107.77617 | 37983 ft | 360 kts | 271° |
| 2026-05-04 22:45 | 34.38381 | -107.86710 | 37993 ft | 360 kts | 271° |
| 2026-05-04 22:46 | 34.38611 | -107.92776 | 37995 ft | 361 kts | 271° |
| 2026-05-04 22:46 | 34.38840 | -107.98806 | 38017 ft | 360 kts | 271° |
| 2026-05-04 22:47 | 34.39066 | -108.04873 | 38020 ft | 361 kts | 270° |
| 2026-05-04 22:47 | 34.39288 | -108.10943 | 38028 ft | 360 kts | 270° |
| 2026-05-04 22:48 | 34.39505 | -108.16983 | 38025 ft | 361 kts | 270° |
| 2026-05-04 22:48 | 34.39721 | -108.23049 | 38024 ft | 361 kts | 270° |
| 2026-05-04 22:49 | 34.39932 | -108.29114 | 38032 ft | 360 kts | 270° |
| 2026-05-04 22:49 | 34.40144 | -108.35193 | 38035 ft | 360 kts | 270° |
| 2026-05-04 22:50 | 34.40348 | -108.41223 | 38035 ft | 361 kts | 270° |
| 2026-05-04 22:50 | 34.40554 | -108.47291 | 38036 ft | 360 kts | 270° |
| 2026-05-04 22:51 | 34.40758 | -108.53348 | 38037 ft | 359 kts | 270° |
| 2026-05-04 22:51 | 34.40955 | -108.59399 | 38036 ft | 359 kts | 270° |
| 2026-05-04 22:52 | 34.41148 | -108.65454 | 38044 ft | 360 kts | 270° |
| 2026-05-04 22:52 | 34.41337 | -108.71470 | 38046 ft | 360 kts | 270° |
| 2026-05-04 22:53 | 34.41527 | -108.77527 | 38036 ft | 360 kts | 270° |
| 2026-05-04 22:53 | 34.41714 | -108.83584 | 38038 ft | 360 kts | 270° |
| 2026-05-04 22:54 | 34.41896 | -108.89644 | 38034 ft | 360 kts | 269° |
| 2026-05-04 22:54 | 34.42073 | -108.95668 | 38035 ft | 360 kts | 269° |
| 2026-05-04 22:55 | 34.42250 | -109.01736 | 38037 ft | 360 kts | 269° |
| 2026-05-04 22:55 | 34.42424 | -109.07809 | 38026 ft | 360 kts | 269° |
| 2026-05-04 22:56 | 34.42651 | -109.13834 | 38023 ft | 361 kts | 272° |
| 2026-05-04 22:56 | 34.43182 | -109.19896 | 38034 ft | 361 kts | 272° |
| 2026-05-04 22:57 | 34.43645 | -109.25959 | 38018 ft | 361 kts | 272° |
| 2026-05-04 22:57 | 34.44180 | -109.32022 | 38012 ft | 362 kts | 272° |
| 2026-05-04 22:58 | 34.44758 | -109.38091 | 38014 ft | 362 kts | 272° |
| 2026-05-04 22:58 | 34.45332 | -109.44155 | 38009 ft | 362 kts | 272° |
| 2026-05-04 22:59 | 34.45903 | -109.50176 | 38015 ft | 362 kts | 272° |
| 2026-05-04 22:59 | 34.46477 | -109.56243 | 38019 ft | 361 kts | 272° |
| 2026-05-04 23:00 | 34.47046 | -109.62303 | 38018 ft | 362 kts | 272° |
| 2026-05-04 23:00 | 34.47617 | -109.68358 | 38023 ft | 362 kts | 272° |
| 2026-05-04 23:01 | 34.48185 | -109.74427 | 38029 ft | 361 kts | 272° |
| 2026-05-04 23:01 | 34.48746 | -109.80456 | 38033 ft | 362 kts | 272° |
| 2026-05-04 23:02 | 34.49305 | -109.86525 | 38038 ft | 362 kts | 272° |
| 2026-05-04 23:02 | 34.49864 | -109.92604 | 38037 ft | 362 kts | 272° |
| 2026-05-04 23:03 | 34.50417 | -109.98672 | 38044 ft | 362 kts | 272° |
| 2026-05-04 23:03 | 34.50965 | -110.04742 | 38044 ft | 362 kts | 271° |
| 2026-05-04 23:04 | 34.51510 | -110.10776 | 38044 ft | 362 kts | 271° |
| 2026-05-04 23:04 | 34.52057 | -110.16843 | 38045 ft | 362 kts | 271° |
| 2026-05-04 23:05 | 34.52599 | -110.22923 | 38045 ft | 362 kts | 271° |
| 2026-05-04 23:05 | 34.53138 | -110.29010 | 38046 ft | 363 kts | 271° |
| 2026-05-04 23:06 | 34.53678 | -110.35098 | 38042 ft | 363 kts | 271° |
| 2026-05-04 23:06 | 34.54208 | -110.41146 | 38034 ft | 363 kts | 271° |